Seven Points, Texas
Current Conditions -  °F | °C
As of 3:53 AM on Sunday 21 Dec 2014 (Local Time) from KCRS Reporting Station
Overcast Overcast  
Wind Chill: 47°   Ceiling: 2100
Heat Index: 47°   Visibility: 8mi
Dew Point: 43°   Wind: 3mph
Humidity: 86%   Direction: 60°ENE
Pressure: 30.16"   Gusts: NA
Location:  32.3343°N, 96.2786°W
Report Text: KCRS 210953Z AUTO 06003KT 8SM OVC021 08/06 A3016 RMK AO2 SLP213 T00830061
Loading
Personal Weather Stations






























Interactive Weather Map New forecast layout! Learn more

10-Day Weather Forecast

Advertisements
Track Severe Weather on mobile